sensor_id;sensor_type;location;lat;lon;timestamp;temperature;humidity
67748;HTU21D;54543;50.712;6.070;2022-12-07T00:01:12;4.27;91.21
67748;HTU21D;54543;50.712;6.070;2022-12-07T00:03:39;4.26;91.23
67748;HTU21D;54543;50.712;6.070;2022-12-07T00:06:07;4.26;91.20
67748;HTU21D;54543;50.712;6.070;2022-12-07T00:08:33;4.28;91.19
67748;HTU21D;54543;50.712;6.070;2022-12-07T00:11:04;4.28;91.21
67748;HTU21D;54543;50.712;6.070;2022-12-07T00:13:30;4.29;91.31
67748;HTU21D;54543;50.712;6.070;2022-12-07T00:16:03;4.29;91.22
67748;HTU21D;54543;50.712;6.070;2022-12-07T00:18:29;4.28;91.27
67748;HTU21D;54543;50.712;6.070;2022-12-07T00:21:24;4.28;91.29
67748;HTU21D;54543;50.712;6.070;2022-12-07T00:23:50;4.28;91.35
67748;HTU21D;54543;50.712;6.070;2022-12-07T00:26:22;4.30;91.37
67748;HTU21D;54543;50.712;6.070;2022-12-07T00:28:50;4.33;91.38
67748;HTU21D;54543;50.712;6.070;2022-12-07T00:31:17;4.34;91.36
67748;HTU21D;54543;50.712;6.070;2022-12-07T00:33:44;4.34;91.32
67748;HTU21D;54543;50.712;6.070;2022-12-07T00:36:12;4.38;91.25
67748;HTU21D;54543;50.712;6.070;2022-12-07T00:38:39;4.39;90.89
67748;HTU21D;54543;50.712;6.070;2022-12-07T00:41:15;4.42;91.12
67748;HTU21D;54543;50.712;6.070;2022-12-07T00:43:42;4.42;90.96
67748;HTU21D;54543;50.712;6.070;2022-12-07T00:46:09;4.43;90.98
67748;HTU21D;54543;50.712;6.070;2022-12-07T00:48:34;4.43;90.53
67748;HTU21D;54543;50.712;6.070;2022-12-07T00:51:00;4.43;91.08
67748;HTU21D;54543;50.712;6.070;2022-12-07T00:53:26;4.43;90.84
67748;HTU21D;54543;50.712;6.070;2022-12-07T00:55:52;4.44;90.84
67748;HTU21D;54543;50.712;6.070;2022-12-07T00:58:18;4.44;90.66
67748;HTU21D;54543;50.712;6.070;2022-12-07T01:00:44;4.43;91.08
67748;HTU21D;54543;50.712;6.070;2022-12-07T01:03:12;4.42;91.26
67748;HTU21D;54543;50.712;6.070;2022-12-07T01:05:38;4.43;91.25
67748;HTU21D;54543;50.712;6.070;2022-12-07T01:08:04;4.43;91.18
67748;HTU21D;54543;50.712;6.070;2022-12-07T01:10:30;4.45;91.15
67748;HTU21D;54543;50.712;6.070;2022-12-07T01:12:57;4.44;91.39
67748;HTU21D;54543;50.712;6.070;2022-12-07T01:15:23;4.46;91.40
67748;HTU21D;54543;50.712;6.070;2022-12-07T01:17:49;4.46;91.39
67748;HTU21D;54543;50.712;6.070;2022-12-07T01:20:14;4.46;91.25
67748;HTU21D;54543;50.712;6.070;2022-12-07T01:22:42;4.43;91.43
67748;HTU21D;54543;50.712;6.070;2022-12-07T01:25:10;4.45;91.50
67748;HTU21D;54543;50.712;6.070;2022-12-07T01:27:35;4.47;91.53
67748;HTU21D;54543;50.712;6.070;2022-12-07T01:30:04;4.47;91.48
67748;HTU21D;54543;50.712;6.070;2022-12-07T01:32:32;4.49;91.50
67748;HTU21D;54543;50.712;6.070;2022-12-07T01:34:57;4.48;91.44
67748;HTU21D;54543;50.712;6.070;2022-12-07T01:37:23;4.51;91.46
67748;HTU21D;54543;50.712;6.070;2022-12-07T01:39:50;4.49;91.41
67748;HTU21D;54543;50.712;6.070;2022-12-07T01:42:15;4.47;91.47
67748;HTU21D;54543;50.712;6.070;2022-12-07T01:47:42;4.45;91.76
67748;HTU21D;54543;50.712;6.070;2022-12-07T01:50:09;4.46;91.60
67748;HTU21D;54543;50.712;6.070;2022-12-07T01:52:36;4.48;91.56
67748;HTU21D;54543;50.712;6.070;2022-12-07T01:55:08;4.46;91.88
67748;HTU21D;54543;50.712;6.070;2022-12-07T01:57:38;4.46;92.11
67748;HTU21D;54543;50.712;6.070;2022-12-07T02:00:06;4.44;92.21
67748;HTU21D;54543;50.712;6.070;2022-12-07T02:02:34;4.41;92.74
67748;HTU21D;54543;50.712;6.070;2022-12-07T02:05:05;4.41;92.72
67748;HTU21D;54543;50.712;6.070;2022-12-07T02:07:31;4.41;92.57
67748;HTU21D;54543;50.712;6.070;2022-12-07T02:10:13;4.42;92.62
67748;HTU21D;54543;50.712;6.070;2022-12-07T02:12:39;4.46;92.56
67748;HTU21D;54543;50.712;6.070;2022-12-07T02:15:05;4.47;92.61
67748;HTU21D;54543;50.712;6.070;2022-12-07T02:17:56;4.49;92.21
67748;HTU21D;54543;50.712;6.070;2022-12-07T02:28:37;4.47;92.66
67748;HTU21D;54543;50.712;6.070;2022-12-07T02:31:12;4.47;92.37
67748;HTU21D;54543;50.712;6.070;2022-12-07T02:33:46;4.47;92.48
67748;HTU21D;54543;50.712;6.070;2022-12-07T02:36:39;4.47;92.45
67748;HTU21D;54543;50.712;6.070;2022-12-07T02:41:42;4.48;92.10
67748;HTU21D;54543;50.712;6.070;2022-12-07T02:44:12;4.49;92.16
67748;HTU21D;54543;50.712;6.070;2022-12-07T02:46:43;4.47;92.20
67748;HTU21D;54543;50.712;6.070;2022-12-07T02:49:10;4.48;92.15
67748;HTU21D;54543;50.712;6.070;2022-12-07T02:51:40;4.49;92.07
67748;HTU21D;54543;50.712;6.070;2022-12-07T02:54:17;4.48;92.12
67748;HTU21D;54543;50.712;6.070;2022-12-07T03:01:59;4.48;91.86
67748;HTU21D;54543;50.712;6.070;2022-12-07T03:04:59;4.45;92.15
67748;HTU21D;54543;50.712;6.070;2022-12-07T03:07:42;4.46;91.95
67748;HTU21D;54543;50.712;6.070;2022-12-07T03:10:19;4.47;91.68
67748;HTU21D;54543;50.712;6.070;2022-12-07T03:16:14;4.39;92.14
67748;HTU21D;54543;50.712;6.070;2022-12-07T03:18:56;4.39;91.74
67748;HTU21D;54543;50.712;6.070;2022-12-07T03:21:31;4.36;91.85
67748;HTU21D;54543;50.712;6.070;2022-12-07T03:23:59;4.36;92.34
67748;HTU21D;54543;50.712;6.070;2022-12-07T03:26:34;4.33;93.03
67748;HTU21D;54543;50.712;6.070;2022-12-07T03:29:07;4.29;93.15
67748;HTU21D;54543;50.712;6.070;2022-12-07T03:31:39;4.27;93.45
67748;HTU21D;54543;50.712;6.070;2022-12-07T03:37:16;4.26;94.33
67748;HTU21D;54543;50.712;6.070;2022-12-07T03:39:57;4.27;94.67
67748;HTU21D;54543;50.712;6.070;2022-12-07T03:42:25;4.24;94.79
67748;HTU21D;54543;50.712;6.070;2022-12-07T03:44:50;4.27;94.75
67748;HTU21D;54543;50.712;6.070;2022-12-07T03:47:27;4.27;94.49
67748;HTU21D;54543;50.712;6.070;2022-12-07T03:52:28;4.23;94.55
67748;HTU21D;54543;50.712;6.070;2022-12-07T03:55:10;4.26;95.20
67748;HTU21D;54543;50.712;6.070;2022-12-07T03:57:37;4.24;94.99
67748;HTU21D;54543;50.712;6.070;2022-12-07T04:00:06;4.28;95.21
67748;HTU21D;54543;50.712;6.070;2022-12-07T04:02:32;4.28;95.24
67748;HTU21D;54543;50.712;6.070;2022-12-07T04:04:58;4.26;94.93
67748;HTU21D;54543;50.712;6.070;2022-12-07T04:07:24;4.22;95.20
67748;HTU21D;54543;50.712;6.070;2022-12-07T04:09:50;4.21;95.18
67748;HTU21D;54543;50.712;6.070;2022-12-07T04:12:15;4.23;95.64
67748;HTU21D;54543;50.712;6.070;2022-12-07T04:14:41;4.26;95.75
67748;HTU21D;54543;50.712;6.070;2022-12-07T04:17:06;4.26;95.78
67748;HTU21D;54543;50.712;6.070;2022-12-07T04:19:33;4.29;95.88
67748;HTU21D;54543;50.712;6.070;2022-12-07T04:22:00;4.31;95.61
67748;HTU21D;54543;50.712;6.070;2022-12-07T04:24:26;4.31;95.91
67748;HTU21D;54543;50.712;6.070;2022-12-07T04:26:52;4.32;95.72
67748;HTU21D;54543;50.712;6.070;2022-12-07T04:29:18;4.30;95.22
67748;HTU21D;54543;50.712;6.070;2022-12-07T04:31:44;4.30;95.46
67748;HTU21D;54543;50.712;6.070;2022-12-07T04:34:11;4.30;95.28
67748;HTU21D;54543;50.712;6.070;2022-12-07T04:36:38;4.30;95.54
67748;HTU21D;54543;50.712;6.070;2022-12-07T04:39:04;4.33;95.56
67748;HTU21D;54543;50.712;6.070;2022-12-07T04:41:31;4.27;95.35
67748;HTU21D;54543;50.712;6.070;2022-12-07T04:44:03;4.27;95.57
67748;HTU21D;54543;50.712;6.070;2022-12-07T04:46:30;4.28;95.52
67748;HTU21D;54543;50.712;6.070;2022-12-07T04:48:57;4.24;95.25
67748;HTU21D;54543;50.712;6.070;2022-12-07T04:51:25;4.20;95.58
67748;HTU21D;54543;50.712;6.070;2022-12-07T04:53:51;4.19;95.45
67748;HTU21D;54543;50.712;6.070;2022-12-07T04:56:18;4.23;95.73
67748;HTU21D;54543;50.712;6.070;2022-12-07T04:58:45;4.23;94.96
67748;HTU21D;54543;50.712;6.070;2022-12-07T05:01:11;4.20;95.02
67748;HTU21D;54543;50.712;6.070;2022-12-07T05:03:37;4.20;95.07
67748;HTU21D;54543;50.712;6.070;2022-12-07T05:06:04;4.21;95.23
67748;HTU21D;54543;50.712;6.070;2022-12-07T05:08:29;4.20;95.16
67748;HTU21D;54543;50.712;6.070;2022-12-07T05:10:55;4.21;95.27
67748;HTU21D;54543;50.712;6.070;2022-12-07T05:13:21;4.20;95.62
67748;HTU21D;54543;50.712;6.070;2022-12-07T05:15:47;4.23;95.59
67748;HTU21D;54543;50.712;6.070;2022-12-07T05:18:13;4.23;95.72
67748;HTU21D;54543;50.712;6.070;2022-12-07T05:20:40;4.24;95.94
67748;HTU21D;54543;50.712;6.070;2022-12-07T05:23:05;4.21;95.94
67748;HTU21D;54543;50.712;6.070;2022-12-07T05:25:31;4.23;95.45
67748;HTU21D;54543;50.712;6.070;2022-12-07T05:27:56;4.20;95.68
67748;HTU21D;54543;50.712;6.070;2022-12-07T05:30:23;4.23;95.91
67748;HTU21D;54543;50.712;6.070;2022-12-07T05:32:48;4.21;95.94
67748;HTU21D;54543;50.712;6.070;2022-12-07T05:35:13;4.20;95.82
67748;HTU21D;54543;50.712;6.070;2022-12-07T05:37:39;4.22;95.63
67748;HTU21D;54543;50.712;6.070;2022-12-07T05:40:05;4.21;95.86
67748;HTU21D;54543;50.712;6.070;2022-12-07T05:42:31;4.22;96.02
67748;HTU21D;54543;50.712;6.070;2022-12-07T05:44:56;4.21;95.84
67748;HTU21D;54543;50.712;6.070;2022-12-07T05:47:22;4.20;96.03
67748;HTU21D;54543;50.712;6.070;2022-12-07T05:49:47;4.21;95.98
67748;HTU21D;54543;50.712;6.070;2022-12-07T05:52:13;4.20;96.06
67748;HTU21D;54543;50.712;6.070;2022-12-07T05:54:38;4.20;95.91
67748;HTU21D;54543;50.712;6.070;2022-12-07T05:57:04;4.21;95.85
67748;HTU21D;54543;50.712;6.070;2022-12-07T05:59:29;4.18;95.93
67748;HTU21D;54543;50.712;6.070;2022-12-07T06:01:57;4.19;96.10
67748;HTU21D;54543;50.712;6.070;2022-12-07T06:04:25;4.18;95.79
67748;HTU21D;54543;50.712;6.070;2022-12-07T06:06:51;4.15;95.67
67748;HTU21D;54543;50.712;6.070;2022-12-07T06:09:18;4.16;95.49
67748;HTU21D;54543;50.712;6.070;2022-12-07T06:11:44;4.13;95.51
67748;HTU21D;54543;50.712;6.070;2022-12-07T06:14:28;4.08;95.62
67748;HTU21D;54543;50.712;6.070;2022-12-07T06:16:53;4.09;95.55
67748;HTU21D;54543;50.712;6.070;2022-12-07T06:19:19;4.08;95.73
67748;HTU21D;54543;50.712;6.070;2022-12-07T06:21:44;4.05;95.73
67748;HTU21D;54543;50.712;6.070;2022-12-07T06:24:14;4.05;95.43
67748;HTU21D;54543;50.712;6.070;2022-12-07T06:26:41;4.04;95.58
67748;HTU21D;54543;50.712;6.070;2022-12-07T06:29:07;4.03;95.39
67748;HTU21D;54543;50.712;6.070;2022-12-07T06:31:33;4.05;95.50
67748;HTU21D;54543;50.712;6.070;2022-12-07T06:33:59;4.07;95.76
67748;HTU21D;54543;50.712;6.070;2022-12-07T06:36:26;4.09;95.81
67748;HTU21D;54543;50.712;6.070;2022-12-07T06:38:51;4.12;95.96
67748;HTU21D;54543;50.712;6.070;2022-12-07T06:41:17;4.14;95.49
67748;HTU21D;54543;50.712;6.070;2022-12-07T06:43:43;4.10;95.45
67748;HTU21D;54543;50.712;6.070;2022-12-07T06:46:08;4.08;95.84
67748;HTU21D;54543;50.712;6.070;2022-12-07T06:48:33;4.10;95.33
67748;HTU21D;54543;50.712;6.070;2022-12-07T06:50:59;4.12;94.98
67748;HTU21D;54543;50.712;6.070;2022-12-07T06:53:24;4.10;95.10
67748;HTU21D;54543;50.712;6.070;2022-12-07T06:55:50;4.10;95.52
67748;HTU21D;54543;50.712;6.070;2022-12-07T06:58:16;4.12;95.01
67748;HTU21D;54543;50.712;6.070;2022-12-07T07:00:41;4.10;95.08
67748;HTU21D;54543;50.712;6.070;2022-12-07T07:03:07;4.09;95.17
67748;HTU21D;54543;50.712;6.070;2022-12-07T07:05:33;4.08;95.75
67748;HTU21D;54543;50.712;6.070;2022-12-07T07:07:58;4.08;95.99
67748;HTU21D;54543;50.712;6.070;2022-12-07T07:10:24;4.08;96.14
67748;HTU21D;54543;50.712;6.070;2022-12-07T07:12:50;4.13;95.84
67748;HTU21D;54543;50.712;6.070;2022-12-07T07:15:15;4.12;95.88
67748;HTU21D;54543;50.712;6.070;2022-12-07T07:17:41;4.15;95.83
67748;HTU21D;54543;50.712;6.070;2022-12-07T07:20:07;4.16;96.16
67748;HTU21D;54543;50.712;6.070;2022-12-07T07:22:32;4.17;96.24
67748;HTU21D;54543;50.712;6.070;2022-12-07T07:24:58;4.16;96.26
67748;HTU21D;54543;50.712;6.070;2022-12-07T07:27:23;4.16;96.21
67748;HTU21D;54543;50.712;6.070;2022-12-07T07:29:49;4.19;96.05
67748;HTU21D;54543;50.712;6.070;2022-12-07T07:32:14;4.16;95.96
67748;HTU21D;54543;50.712;6.070;2022-12-07T07:34:40;4.17;95.95
67748;HTU21D;54543;50.712;6.070;2022-12-07T07:37:05;4.18;96.28
67748;HTU21D;54543;50.712;6.070;2022-12-07T07:39:31;4.20;95.81
67748;HTU21D;54543;50.712;6.070;2022-12-07T07:41:56;4.17;95.89
67748;HTU21D;54543;50.712;6.070;2022-12-07T07:44:22;4.13;96.05
67748;HTU21D;54543;50.712;6.070;2022-12-07T07:46:47;4.07;95.81
67748;HTU21D;54543;50.712;6.070;2022-12-07T07:49:13;4.07;95.78
67748;HTU21D;54543;50.712;6.070;2022-12-07T07:51:38;4.07;95.64
67748;HTU21D;54543;50.712;6.070;2022-12-07T07:54:03;4.03;95.77
67748;HTU21D;54543;50.712;6.070;2022-12-07T07:56:29;4.03;95.98
67748;HTU21D;54543;50.712;6.070;2022-12-07T07:58:55;4.04;95.83
67748;HTU21D;54543;50.712;6.070;2022-12-07T08:01:20;4.04;96.26
67748;HTU21D;54543;50.712;6.070;2022-12-07T08:03:46;4.02;95.85
67748;HTU21D;54543;50.712;6.070;2022-12-07T08:06:12;4.02;95.68
67748;HTU21D;54543;50.712;6.070;2022-12-07T08:08:37;3.97;95.90
67748;HTU21D;54543;50.712;6.070;2022-12-07T08:11:07;3.99;95.75
67748;HTU21D;54543;50.712;6.070;2022-12-07T08:13:33;3.99;95.35
67748;HTU21D;54543;50.712;6.070;2022-12-07T08:16:06;3.94;95.59
67748;HTU21D;54543;50.712;6.070;2022-12-07T08:18:36;3.93;95.70
67748;HTU21D;54543;50.712;6.070;2022-12-07T08:21:02;3.92;95.90
67748;HTU21D;54543;50.712;6.070;2022-12-07T08:23:28;3.91;95.90
67748;HTU21D;54543;50.712;6.070;2022-12-07T08:25:53;3.94;95.78
67748;HTU21D;54543;50.712;6.070;2022-12-07T08:28:19;3.95;95.62
67748;HTU21D;54543;50.712;6.070;2022-12-07T08:30:44;3.94;95.51
67748;HTU21D;54543;50.712;6.070;2022-12-07T08:33:10;3.97;95.46
67748;HTU21D;54543;50.712;6.070;2022-12-07T08:35:36;3.98;95.51
67748;HTU21D;54543;50.712;6.070;2022-12-07T08:38:02;3.99;95.65
67748;HTU21D;54543;50.712;6.070;2022-12-07T08:40:28;3.99;95.70
67748;HTU21D;54543;50.712;6.070;2022-12-07T08:42:54;3.97;95.76
67748;HTU21D;54543;50.712;6.070;2022-12-07T08:45:20;3.97;95.81
67748;HTU21D;54543;50.712;6.070;2022-12-07T08:48:09;3.97;95.95
67748;HTU21D;54543;50.712;6.070;2022-12-07T08:50:37;3.94;96.03
67748;HTU21D;54543;50.712;6.070;2022-12-07T08:53:04;3.93;96.13
67748;HTU21D;54543;50.712;6.070;2022-12-07T08:55:31;3.95;96.08
67748;HTU21D;54543;50.712;6.070;2022-12-07T08:57:59;3.95;96.10
67748;HTU21D;54543;50.712;6.070;2022-12-07T09:00:25;3.97;96.13
67748;HTU21D;54543;50.712;6.070;2022-12-07T09:02:51;3.98;95.94
67748;HTU21D;54543;50.712;6.070;2022-12-07T09:05:17;4.01;95.99
67748;HTU21D;54543;50.712;6.070;2022-12-07T09:07:44;4.05;96.16
67748;HTU21D;54543;50.712;6.070;2022-12-07T09:10:11;4.09;96.43
67748;HTU21D;54543;50.712;6.070;2022-12-07T09:12:37;4.10;96.02
67748;HTU21D;54543;50.712;6.070;2022-12-07T09:15:03;4.09;95.96
67748;HTU21D;54543;50.712;6.070;2022-12-07T09:17:32;4.13;95.78
67748;HTU21D;54543;50.712;6.070;2022-12-07T09:19:58;4.20;96.16
67748;HTU21D;54543;50.712;6.070;2022-12-07T09:22:23;4.22;95.72
67748;HTU21D;54543;50.712;6.070;2022-12-07T09:24:49;4.23;95.15
67748;HTU21D;54543;50.712;6.070;2022-12-07T09:27:14;4.28;95.43
67748;HTU21D;54543;50.712;6.070;2022-12-07T09:29:41;4.27;94.86
67748;HTU21D;54543;50.712;6.070;2022-12-07T09:32:07;4.19;94.63
67748;HTU21D;54543;50.712;6.070;2022-12-07T09:34:32;4.16;94.60
67748;HTU21D;54543;50.712;6.070;2022-12-07T09:36:59;4.14;94.65
67748;HTU21D;54543;50.712;6.070;2022-12-07T09:39:25;4.16;95.20
67748;HTU21D;54543;50.712;6.070;2022-12-07T09:41:51;4.22;95.46
67748;HTU21D;54543;50.712;6.070;2022-12-07T09:44:23;4.27;95.42
67748;HTU21D;54543;50.712;6.070;2022-12-07T09:46:49;4.30;95.62
67748;HTU21D;54543;50.712;6.070;2022-12-07T09:49:23;4.28;95.30
67748;HTU21D;54543;50.712;6.070;2022-12-07T09:54:36;4.26;95.39
67748;HTU21D;54543;50.712;6.070;2022-12-07T09:57:04;4.17;95.84
67748;HTU21D;54543;50.712;6.070;2022-12-07T09:59:30;4.16;95.91
67748;HTU21D;54543;50.712;6.070;2022-12-07T10:02:23;4.23;96.33
67748;HTU21D;54543;50.712;6.070;2022-12-07T10:04:49;4.27;95.95
67748;HTU21D;54543;50.712;6.070;2022-12-07T10:07:15;4.27;96.13
67748;HTU21D;54543;50.712;6.070;2022-12-07T10:09:40;4.29;95.82
67748;HTU21D;54543;50.712;6.070;2022-12-07T10:12:08;4.31;96.03
67748;HTU21D;54543;50.712;6.070;2022-12-07T10:14:37;4.39;96.05
67748;HTU21D;54543;50.712;6.070;2022-12-07T10:22:37;4.49;95.34
67748;HTU21D;54543;50.712;6.070;2022-12-07T10:25:18;4.47;95.30
67748;HTU21D;54543;50.712;6.070;2022-12-07T10:28:01;4.45;95.07
67748;HTU21D;54543;50.712;6.070;2022-12-07T10:30:27;4.46;95.52
67748;HTU21D;54543;50.712;6.070;2022-12-07T10:32:52;4.52;95.42
67748;HTU21D;54543;50.712;6.070;2022-12-07T10:35:22;4.58;95.90
67748;HTU21D;54543;50.712;6.070;2022-12-07T10:37:49;4.66;96.19
67748;HTU21D;54543;50.712;6.070;2022-12-07T10:43:26;4.79;96.37
67748;HTU21D;54543;50.712;6.070;2022-12-07T10:46:13;4.92;96.42
67748;HTU21D;54543;50.712;6.070;2022-12-07T10:54:07;4.97;95.93
67748;HTU21D;54543;50.712;6.070;2022-12-07T10:59:43;4.94;94.69
67748;HTU21D;54543;50.712;6.070;2022-12-07T11:08:13;4.74;94.21
67748;HTU21D;54543;50.712;6.070;2022-12-07T11:11:01;4.68;94.46
67748;HTU21D;54543;50.712;6.070;2022-12-07T11:22:15;4.87;94.84
67748;HTU21D;54543;50.712;6.070;2022-12-07T11:27:38;4.92;95.04
67748;HTU21D;54543;50.712;6.070;2022-12-07T11:30:16;4.98;94.78
67748;HTU21D;54543;50.712;6.070;2022-12-07T11:33:09;5.03;94.99
67748;HTU21D;54543;50.712;6.070;2022-12-07T11:40:43;5.06;93.62
67748;HTU21D;54543;50.712;6.070;2022-12-07T11:45:57;4.97;93.78
67748;HTU21D;54543;50.712;6.070;2022-12-07T11:48:38;4.95;93.79
67748;HTU21D;54543;50.712;6.070;2022-12-07T11:51:07;4.97;93.50
67748;HTU21D;54543;50.712;6.070;2022-12-07T11:53:44;4.92;93.77
67748;HTU21D;54543;50.712;6.070;2022-12-07T11:56:17;4.92;94.24
67748;HTU21D;54543;50.712;6.070;2022-12-07T12:04:02;4.95;94.18
67748;HTU21D;54543;50.712;6.070;2022-12-07T12:06:31;5.01;94.27
67748;HTU21D;54543;50.712;6.070;2022-12-07T12:09:12;5.07;94.30
67748;HTU21D;54543;50.712;6.070;2022-12-07T12:22:37;4.93;93.36
67748;HTU21D;54543;50.712;6.070;2022-12-07T12:25:20;4.91;93.49
67748;HTU21D;54543;50.712;6.070;2022-12-07T12:27:48;4.89;93.35
67748;HTU21D;54543;50.712;6.070;2022-12-07T12:30:44;4.83;93.14
67748;HTU21D;54543;50.712;6.070;2022-12-07T12:33:19;4.80;93.53
67748;HTU21D;54543;50.712;6.070;2022-12-07T12:36:18;4.81;92.87
67748;HTU21D;54543;50.712;6.070;2022-12-07T12:54:32;5.06;93.53
67748;HTU21D;54543;50.712;6.070;2022-12-07T12:59:58;5.18;92.75
67748;HTU21D;54543;50.712;6.070;2022-12-07T13:02:32;5.12;92.88
67748;HTU21D;54543;50.712;6.070;2022-12-07T13:07:49;5.09;93.27
67748;HTU21D;54543;50.712;6.070;2022-12-07T13:10:24;5.06;93.16
67748;HTU21D;54543;50.712;6.070;2022-12-07T13:28:48;5.04;92.30
67748;HTU21D;54543;50.712;6.070;2022-12-07T13:31:38;5.00;92.66
67748;HTU21D;54543;50.712;6.070;2022-12-07T13:36:52;4.98;92.72
67748;HTU21D;54543;50.712;6.070;2022-12-07T13:39:20;4.96;92.56
67748;HTU21D;54543;50.712;6.070;2022-12-07T13:41:55;4.94;92.75
67748;HTU21D;54543;50.712;6.070;2022-12-07T13:44:23;4.97;93.29
67748;HTU21D;54543;50.712;6.070;2022-12-07T13:49:24;5.01;93.41
67748;HTU21D;54543;50.712;6.070;2022-12-07T13:51:51;5.00;93.29
67748;HTU21D;54543;50.712;6.070;2022-12-07T13:54:17;5.01;93.24
67748;HTU21D;54543;50.712;6.070;2022-12-07T13:56:43;5.03;93.61
67748;HTU21D;54543;50.712;6.070;2022-12-07T13:59:29;5.07;93.46
67748;HTU21D;54543;50.712;6.070;2022-12-07T14:01:58;5.08;93.66
67748;HTU21D;54543;50.712;6.070;2022-12-07T14:04:35;5.12;93.51
67748;HTU21D;54543;50.712;6.070;2022-12-07T14:07:27;5.16;93.51
67748;HTU21D;54543;50.712;6.070;2022-12-07T14:10:00;5.18;93.70
67748;HTU21D;54543;50.712;6.070;2022-12-07T14:12:28;5.17;93.60
67748;HTU21D;54543;50.712;6.070;2022-12-07T14:14:55;5.18;93.15
67748;HTU21D;54543;50.712;6.070;2022-12-07T14:17:26;5.18;93.08
67748;HTU21D;54543;50.712;6.070;2022-12-07T14:19:57;5.19;92.98
67748;HTU21D;54543;50.712;6.070;2022-12-07T14:22:34;5.16;92.63
67748;HTU21D;54543;50.712;6.070;2022-12-07T14:27:36;5.10;93.17
67748;HTU21D;54543;50.712;6.070;2022-12-07T14:30:03;5.10;93.33
67748;HTU21D;54543;50.712;6.070;2022-12-07T14:32:30;5.09;93.22
67748;HTU21D;54543;50.712;6.070;2022-12-07T14:35:10;5.07;93.45
67748;HTU21D;54543;50.712;6.070;2022-12-07T14:37:37;5.09;93.67
67748;HTU21D;54543;50.712;6.070;2022-12-07T14:40:03;5.07;93.72
67748;HTU21D;54543;50.712;6.070;2022-12-07T14:42:30;5.09;93.47
67748;HTU21D;54543;50.712;6.070;2022-12-07T14:44:57;5.05;93.49
67748;HTU21D;54543;50.712;6.070;2022-12-07T14:47:24;5.02;93.54
67748;HTU21D;54543;50.712;6.070;2022-12-07T14:49:50;5.00;93.46
67748;HTU21D;54543;50.712;6.070;2022-12-07T14:52:27;5.02;93.14
67748;HTU21D;54543;50.712;6.070;2022-12-07T14:54:53;5.00;93.01
67748;HTU21D;54543;50.712;6.070;2022-12-07T14:57:19;4.97;92.75
67748;HTU21D;54543;50.712;6.070;2022-12-07T14:59:45;4.96;92.46
67748;HTU21D;54543;50.712;6.070;2022-12-07T15:02:12;4.95;92.66
67748;HTU21D;54543;50.712;6.070;2022-12-07T15:04:39;4.91;92.72
67748;HTU21D;54543;50.712;6.070;2022-12-07T15:07:09;4.88;93.05
67748;HTU21D;54543;50.712;6.070;2022-12-07T15:09:35;4.91;92.71
67748;HTU21D;54543;50.712;6.070;2022-12-07T15:12:01;4.89;92.92
67748;HTU21D;54543;50.712;6.070;2022-12-07T15:14:27;4.90;93.14
67748;HTU21D;54543;50.712;6.070;2022-12-07T15:16:53;4.90;93.33
67748;HTU21D;54543;50.712;6.070;2022-12-07T15:19:23;4.91;93.48
67748;HTU21D;54543;50.712;6.070;2022-12-07T15:21:51;4.91;93.40
67748;HTU21D;54543;50.712;6.070;2022-12-07T15:24:17;4.92;93.27
67748;HTU21D;54543;50.712;6.070;2022-12-07T15:26:43;4.94;92.69
67748;HTU21D;54543;50.712;6.070;2022-12-07T15:29:09;4.90;92.75
67748;HTU21D;54543;50.712;6.070;2022-12-07T15:31:35;4.88;92.62
67748;HTU21D;54543;50.712;6.070;2022-12-07T15:34:01;4.83;92.83
67748;HTU21D;54543;50.712;6.070;2022-12-07T15:36:29;4.78;92.88
67748;HTU21D;54543;50.712;6.070;2022-12-07T15:38:55;4.74;92.82
67748;HTU21D;54543;50.712;6.070;2022-12-07T15:41:21;4.68;92.58
67748;HTU21D;54543;50.712;6.070;2022-12-07T15:43:47;4.64;92.65
67748;HTU21D;54543;50.712;6.070;2022-12-07T15:46:33;4.54;92.61
67748;HTU21D;54543;50.712;6.070;2022-12-07T15:48:59;4.46;92.79
67748;HTU21D;54543;50.712;6.070;2022-12-07T15:51:25;4.39;93.02
67748;HTU21D;54543;50.712;6.070;2022-12-07T15:53:51;4.36;93.24
67748;HTU21D;54543;50.712;6.070;2022-12-07T15:56:16;4.33;93.40
67748;HTU21D;54543;50.712;6.070;2022-12-07T15:58:42;4.31;93.46
67748;HTU21D;54543;50.712;6.070;2022-12-07T16:01:15;4.30;93.58
67748;HTU21D;54543;50.712;6.070;2022-12-07T16:03:41;4.29;93.69
67748;HTU21D;54543;50.712;6.070;2022-12-07T16:06:07;4.31;93.56
67748;HTU21D;54543;50.712;6.070;2022-12-07T16:08:33;4.30;93.71
67748;HTU21D;54543;50.712;6.070;2022-12-07T16:10:58;4.31;93.58
67748;HTU21D;54543;50.712;6.070;2022-12-07T16:13:24;4.33;93.66
67748;HTU21D;54543;50.712;6.070;2022-12-07T16:15:49;4.35;93.37
67748;HTU21D;54543;50.712;6.070;2022-12-07T16:18:15;4.34;93.43
67748;HTU21D;54543;50.712;6.070;2022-12-07T16:20:40;4.34;93.31
67748;HTU21D;54543;50.712;6.070;2022-12-07T16:23:06;4.36;93.31
67748;HTU21D;54543;50.712;6.070;2022-12-07T16:25:33;4.36;93.53
67748;HTU21D;54543;50.712;6.070;2022-12-07T16:27:58;4.39;93.68
67748;HTU21D;54543;50.712;6.070;2022-12-07T16:30:24;4.44;93.46
67748;HTU21D;54543;50.712;6.070;2022-12-07T16:32:51;4.42;93.71
67748;HTU21D;54543;50.712;6.070;2022-12-07T16:35:16;4.45;93.77
67748;HTU21D;54543;50.712;6.070;2022-12-07T16:37:42;4.47;93.84
67748;HTU21D;54543;50.712;6.070;2022-12-07T16:40:09;4.48;93.77
67748;HTU21D;54543;50.712;6.070;2022-12-07T16:42:35;4.48;93.68
67748;HTU21D;54543;50.712;6.070;2022-12-07T16:45:01;4.46;93.46
67748;HTU21D;54543;50.712;6.070;2022-12-07T16:47:27;4.47;93.08
67748;HTU21D;54543;50.712;6.070;2022-12-07T16:49:53;4.44;92.97
67748;HTU21D;54543;50.712;6.070;2022-12-07T16:52:19;4.43;92.79
67748;HTU21D;54543;50.712;6.070;2022-12-07T16:54:45;4.45;92.53
67748;HTU21D;54543;50.712;6.070;2022-12-07T16:57:10;4.39;92.90
67748;HTU21D;54543;50.712;6.070;2022-12-07T16:59:36;4.39;92.60
67748;HTU21D;54543;50.712;6.070;2022-12-07T17:02:01;4.39;92.52
67748;HTU21D;54543;50.712;6.070;2022-12-07T17:04:27;4.37;92.69
67748;HTU21D;54543;50.712;6.070;2022-12-07T17:06:53;4.37;92.64
67748;HTU21D;54543;50.712;6.070;2022-12-07T17:09:19;4.39;92.93
67748;HTU21D;54543;50.712;6.070;2022-12-07T17:11:45;4.41;92.64
67748;HTU21D;54543;50.712;6.070;2022-12-07T17:14:11;4.41;92.96
67748;HTU21D;54543;50.712;6.070;2022-12-07T17:16:55;4.42;93.08
67748;HTU21D;54543;50.712;6.070;2022-12-07T17:19:20;4.43;92.98
67748;HTU21D;54543;50.712;6.070;2022-12-07T17:21:46;4.44;93.06
67748;HTU21D;54543;50.712;6.070;2022-12-07T17:24:14;4.45;93.08
67748;HTU21D;54543;50.712;6.070;2022-12-07T17:26:40;4.46;93.17
67748;HTU21D;54543;50.712;6.070;2022-12-07T17:29:07;4.47;93.20
67748;HTU21D;54543;50.712;6.070;2022-12-07T17:31:34;4.47;93.17
67748;HTU21D;54543;50.712;6.070;2022-12-07T17:34:00;4.49;92.92
67748;HTU21D;54543;50.712;6.070;2022-12-07T17:36:29;4.51;92.73
67748;HTU21D;54543;50.712;6.070;2022-12-07T17:38:55;4.47;92.85
67748;HTU21D;54543;50.712;6.070;2022-12-07T17:41:23;4.47;92.87
67748;HTU21D;54543;50.712;6.070;2022-12-07T17:44:10;4.45;93.23
67748;HTU21D;54543;50.712;6.070;2022-12-07T17:46:36;4.48;92.98
67748;HTU21D;54543;50.712;6.070;2022-12-07T17:49:03;4.46;92.89
67748;HTU21D;54543;50.712;6.070;2022-12-07T17:51:29;4.44;92.73
67748;HTU21D;54543;50.712;6.070;2022-12-07T17:54:13;4.41;93.20